LSZS/SMV METAR and TAF weather

Enter ICAO airport designator
Station Type Date Time Source
LSZS METAR 2024/04/15 09:50 UTC NOAA

LSZS 150950Z 23013KT 9999 FEW035 11/05 Q1016 RMK J TL170


Station Type Date Time Source
LSZS Decoded METAR 2024/04/15 09:50 UTC NOAA

Station name not available
Apr 15, 2024 - 05:50 AM EDT / 2024.04.15 0950 UTC
Wind: from the SW (230 degrees) at 15 MPH (13 KT):0
Visibility: greater than 7 mile(s):0
Sky conditions: mostly clear
Temperature: 51 F (11 C)
Dew Point: 41 F (5 C)
Relative Humidity: 66%
Pressure (altimeter): 30.00 in. Hg (1016 hPa)
ob: LSZS 150950Z 23013KT 9999 FEW035 11/05 Q1016 RMK J TL170
cycle: 10

Station Type Date Time Source
LSZS TAF 2023/04/28 06:39 UTC NOAA